LGMT/MJT METAR and TAF weather

Enter ICAO airport designator
Station Type Date Time Source
LGMT METAR 2020/09/27 02:50 UTC NOAA

LGMT 270250Z 22006KT 9999 SCT025 23/20 Q1009


Station Type Date Time Source
LGMT Decoded METAR 2020/09/27 02:50 UTC NOAA

Mytilini Airport , Greece (LGMT) 39-04N 026-36E 5M
Sep 26, 2020 - 10:50 PM EDT / 2020.09.27 0250 UTC
Wind: from the SW (220 degrees) at 7 MPH (6 KT):0
Visibility: greater than 7 mile(s):0
Sky conditions: partly cloudy
Temperature: 73 F (23 C)
Dew Point: 68 F (20 C)
Relative Humidity: 83%
Pressure (altimeter): 29.80 in. Hg (1009 hPa)
ob: LGMT 270250Z 22006KT 9999 SCT025 23/20 Q1009
cycle: 3

Station Type Date Time Source
LGMT TAF 2012/09/21 03:06 UTC NOAA

TAF LGMT 210200Z 2103/2115 VRB05KT 9999 SCT020
BECMG 2103/2105 30015KT PROB30
TEMPO 2103/2106 7000 RA SCT018 BKN030
BECMG 2107/2109 29012KT

Example: see airport list